• Join FlightAware (Why Join?)
  • Login
  • US Flag 
03:39AM EDT


 

Airport Tracker/Info


-or-


 

Live Flight TrackerFlight Track Log ✈ UAL1402 ✈ 14-May-2013 ✈ KORD - KMSP

Flight Track Log - Related Links

Times and Time Zones

All times are in EDT time to prevent confusion due to time zone crossing. See the UAL1402 flight status page for this flight to view local times or setup timezone preferences in your user account.

Time Position Orientation Groundspeed Altitude Reporting Facility
EDT Latitude Longitude Course Direction KTS MPH feet Rate Location/Type
07:41AM 41.9667 -87.9833 346° North 192 221 3,500  Level Chicago TRACON
07:42AM 41.9667 -88.0667 270° West 243 280 5,000 1,140 Climbing Chicago TRACON
07:43AM 42.2451 -87.9904 350° North  Level FlightAware Approximate
07:43AM 41.9494 -88.1422 253° West 236 272 5,800  Level Chicago Center
07:44AM 42.3396 -88.0141 350° North  Level FlightAware Approximate
07:44AM 41.9989 -88.2106 314° West 272 313 10,300  Level Chicago Center
07:45AM 42.4309 -88.0528 352° North  Level FlightAware Approximate
07:45AM 42.0578 -88.1233 48° Northeast 310 357 13,000  Level Chicago Center
07:46AM 42.5220 -88.0851 346° North  Level FlightAware Approximate
07:46AM 42.1242 -88.0625 34° Northeast 306 352 13,700  Level Chicago Center
07:47AM 42.2031 -88.0533 North 287 330 16,800 3,060 Climbing Chicago Center
07:48AM 42.2831 -88.0461 North 288 331 20,000 2,460 Climbing Chicago Center
07:49AM 42.3797 -88.0447 North 301 346 21,900 1,560 Climbing Chicago Center
07:50AM 42.4731 -88.0792 345° North 341 392 23,300 1,920 Climbing Chicago Center
07:51AM 42.5689 -88.1075 348° North 351 404 25,900 2,340 Climbing Chicago Center
07:52AM 42.6664 -88.1386 347° North 357 411 28,100 1,920 Climbing Chicago Center
07:53AM 42.7683 -88.1725 346° North 372 428 29,900 1,920 Climbing Chicago Center
07:54AM 42.8450 -88.2681 318° Northwest 371 427 32,100 1,800 Climbing Chicago Center
07:55AM 42.9192 -88.3672 316° Northwest 369 425 33,600 1,860 Climbing Chicago Center
07:56AM 43.0039 -88.4819 315° West 366 421 36,000 1,140 Climbing Chicago Center
07:57AM 43.0742 -88.5772 315° West 356 410 36,000  Level Chicago Center
07:58AM 43.1461 -88.6725 316° Northwest 356 410 36,000  Level Chicago Center
08:00AM 43.2161 -88.7689 315° West 355 409 36,000  Level Chicago Center
08:01AM 43.2867 -88.8650 315° West 355 409 36,000  Level Chicago Center
08:02AM 43.3561 -88.9603 315° West 351 404 36,000  Level Chicago Center
08:03AM 43.4261 -89.0564 315° West 352 405 36,000  Level Chicago Center
08:04AM 43.4958 -89.1503 316° Northwest 351 404 36,000  Level Chicago Center
08:05AM 43.5761 -89.2617 315° West 350 403 36,000  Level Chicago Center
08:06AM 43.6458 -89.3575 315° West 352 405 36,000  Level Chicago Center
08:06AM 43.6808 -89.4039 316° Northwest 351 404 36,000  Level Minneapolis Center
08:07AM 43.7481 -89.5019 314° West 351 404 36,000  Level Minneapolis Center
08:08AM 43.8283 -89.6133 315° West 349 402 36,000  Level Minneapolis Center
08:09AM 43.8978 -89.7097 315° West 352 405 36,000 -360 Level Minneapolis Center
08:10AM 43.9664 -89.8058 315° West 350 403 35,300 -840 Descending Minneapolis Center
08:11AM 44.0361 -89.9053 314° West 357 411 34,400 -660 Descending Minneapolis Center
08:12AM 44.1014 -90.0075 312° West 354 407 34,000 -240 Descending Minneapolis Center
08:13AM 44.1586 -90.1183 306° West 352 405 34,000  Level Minneapolis Center
08:14AM 44.2003 -90.2428 295° West 355 409 34,000  Level Minneapolis Center
08:16AM 44.2431 -90.3694 295° West 358 412 34,000  Level Minneapolis Center
08:17AM 44.2925 -90.5172 295° West 361 415 34,000  Level Minneapolis Center
08:18AM 44.3397 -90.6403 298° West 360 414 34,000  Level Minneapolis Center
08:19AM 44.3792 -90.7694 293° West 360 414 34,000 -120 Level Minneapolis Center
08:20AM 44.4239 -90.8978 296° West 365 420 33,800 -600 Descending Minneapolis Center
08:21AM 44.4650 -91.0286 294° West 362 417 32,800 -1,020 Descending Minneapolis Center
08:22AM 44.5086 -91.1581 295° West 368 423 31,800 -960 Descending Minneapolis Center
08:23AM 44.5517 -91.2900 295° West 372 428 30,900 -1,440 Descending Minneapolis Center
08:24AM 44.5953 -91.4222 295° West 375 432 28,900 -2,400 Descending Minneapolis Center
08:25AM 44.6389 -91.5539 295° West 374 430 26,000 -3,000 Descending Minneapolis Center
08:26AM 44.6875 -91.7064 294° West 364 419 22,800 -2,820 Descending Minneapolis Center
08:27AM 44.7275 -91.8294 295° West 353 406 20,300 -2,520 Descending Minneapolis Center
08:28AM 44.7664 -91.9511 294° West 345 397 17,700 -2,580 Descending Minneapolis Center
08:29AM 44.8039 -92.0703 294° West 336 387 15,100 -2,460 Descending Minneapolis Center
08:30AM 44.8411 -92.1867 294° West 328 377 12,700 -2,340 Descending Minneapolis Center
08:31AM 44.8761 -92.2983 294° West 313 360 10,400 -1,380 Descending Minneapolis Center
08:32AM 44.8986 -92.3900 289° West 311 358 10,000 -660 Descending Minneapolis Center
08:33AM 44.8347 -92.5256 236° Southwest 289 333 9,100 -1,320 Descending Minneapolis Center
08:34AM 44.7956 -92.6194 240° Southwest 283 326 7,300 -1,080 Descending Minneapolis Center
08:35AM 44.7858 -92.7239 263° West 267 307 7,000 -720 Descending Minneapolis Center
08:36AM 44.7744 -92.8192 260° West 250 288 5,900 -1,140 Descending Minneapolis Center
08:37AM 44.7642 -92.9131 261° West 245 282 4,500 -1,080 Descending Minneapolis Center
08:38AM 44.7914 -93.0136 291° West 232 267 3,500 -1,020 Descending Minneapolis Center